Time;durP1;ratioP1;P1;durP2;ratioP2;P2;SDS_P1;SDS_P2;PMS_P1;PMS_P2;Temp;Humidity;BMP_temperature;BMP_pressure;BME280_temperature;BME280_humidity;BME280_pressure;Samples;Min_cycle;Max_cycle;Signal;HPM_P1;HPM_P2
2022/04/21 00:00:04;;;;;;;;;;;;;;;6.87;57.84;96338.91;30001;983;1880;-66
2022/04/21 00:00:35;;;;;;;;;;;;;;;6.85;58.33;96338.38;30001;983;1880;-57
2022/04/21 00:01:07;;;;;;;;;;;;;;;6.83;57.42;96335.16;30001;983;1880;-57
2022/04/21 00:01:41;;;;;;;;;;;;;;;6.81;57.62;96332.72;30001;983;1859;-57
2022/04/21 00:02:12;;;;;;;;;;;;;;;6.79;58.43;96334.09;30001;983;1876;-57
2022/04/21 00:02:43;;;;;;;;;;;;;;;6.77;57.97;96330.88;30001;983;1880;-60
2022/04/21 00:03:14;;;;;;;;;;;;;;;6.76;57.64;96330.06;30001;983;1881;-60
2022/04/21 00:03:45;;;;;;;;;;;;;;;6.73;57.66;96331.44;30001;983;1881;-60
2022/04/21 00:04:16;;;;;;;;;;;;;;;6.72;58.63;96334.41;30001;982;1881;-59
2022/04/21 00:04:47;;;;;;;;;;;;;;;6.70;59.10;96329.31;30001;982;1881;-59
2022/04/21 00:05:18;;;;;;;;;;;;;;;6.66;60.15;96330.16;30001;971;1899;-66
2022/04/21 00:05:48;;;;;;;;;;;;;;;6.63;60.63;96331.50;30001;982;1881;-59
2022/04/21 00:06:19;;;;;;;;;;;;;;;6.58;59.83;96328.88;30001;982;1881;-59
2022/04/21 00:06:50;;;;;;;;;;;;;;;6.56;59.30;96331.03;30001;982;1859;-59
2022/04/21 00:07:22;;;;;;;;;;;;;;;6.55;59.11;96329.44;30001;982;1877;-59
2022/04/21 00:07:53;;;;;;;;;;;;;;;6.56;59.17;96324.84;30001;983;1880;-59
2022/04/21 00:08:26;;;;;;;;;;;;;;;6.55;60.04;96324.03;30001;983;1880;-61
2022/04/21 00:08:57;;;;;;;;;;;;;;;6.53;60.83;96326.22;30001;973;1899;-69
2022/04/21 00:09:28;;;;;;;;;;;;;;;6.52;60.11;96330.00;30001;983;1880;-59
2022/04/21 00:09:59;;;;;;;;;;;;;;;6.49;60.88;96330.56;30001;983;1880;-59
2022/04/21 00:10:30;;;;;;;;;;;;;;;6.45;61.10;96324.09;30001;983;1880;-67
2022/04/21 00:11:01;;;;;;;;;;;;;;;6.43;60.07;96318.19;30001;983;1881;-60
2022/04/21 00:11:31;;;;;;;;;;;;;;;6.44;60.67;96327.09;30001;983;1881;-59
2022/04/21 00:12:03;;;;;;;;;;;;;;;6.44;60.14;96322.50;30001;982;1859;-59
2022/04/21 00:12:34;;;;;;;;;;;;;;;6.43;60.19;96323.59;30001;982;1876;-57
2022/04/21 00:13:07;;;;;;;;;;;;;;;6.40;59.79;96310.66;30001;982;1881;-66
2022/04/21 00:13:37;;;;;;;;;;;;;;;6.41;59.36;96323.06;30001;982;1881;-58
2022/04/21 00:14:08;;;;;;;;;;;;;;;6.41;59.36;96316.84;30001;982;1859;-59
2022/04/21 00:14:40;;;;;;;;;;;;;;;6.43;59.51;96310.09;30001;982;1877;-66
2022/04/21 00:15:11;;;;;;;;;;;;;;;6.45;59.53;96307.94;30001;983;1880;-59
2022/04/21 00:15:43;;;;;;;;;;;;;;;6.44;60.20;96319.81;30001;983;1880;-58
2022/04/21 00:16:13;;;;;;;;;;;;;;;6.44;59.67;96314.41;30001;983;1880;-67
2022/04/21 00:16:45;;;;;;;;;;;;;;;6.43;60.31;96314.69;30001;983;1881;-67
2022/04/21 00:17:15;;;;;;;;;;;;;;;6.40;59.64;96313.34;30001;983;1880;-58
2022/04/21 00:17:47;;;;;;;;;;;;;;;6.38;59.58;96308.25;30001;983;1880;-58
2022/04/21 00:18:17;;;;;;;;;;;;;;;6.38;59.33;96312.84;30001;983;1881;-59
2022/04/21 00:18:50;;;;;;;;;;;;;;;6.39;59.45;96314.44;30001;983;1881;-59
2022/04/21 00:19:21;;;;;;;;;;;;;;;6.39;59.63;96315.25;30001;982;1859;-58
2022/04/21 00:19:52;;;;;;;;;;;;;;;6.41;59.78;96312.28;30001;982;1876;-58
2022/04/21 00:20:22;;;;;;;;;;;;;;;6.42;59.70;96308.50;30001;982;1881;-58
2022/04/21 00:21:01;;;;;;;;;;;;;;;6.41;60.47;96301.50;30001;982;1881;-59
2022/04/21 00:23:26;;;;;;;;;;;;;;;6.37;60.33;96313.91;30001;982;1881;-59
2022/04/21 00:23:27;;;;;;;;;;;;;;;6.32;59.68;96303.16;30001;983;1880;-58
2022/04/21 00:23:58;;;;;;;;;;;;;;;6.31;59.89;96302.38;30001;983;1880;-59
2022/04/21 00:24:29;;;;;;;;;;;;;;;6.31;60.47;96299.66;30001;983;1858;-58
2022/04/21 00:25:00;;;;;;;;;;;;;;;6.26;61.92;96306.97;30001;983;1876;-58
2022/04/21 00:25:31;;;;;;;;;;;;;;;6.20;61.88;96306.22;30001;983;1880;-65
2022/04/21 00:26:03;;;;;;;;;;;;;;;6.15;62.45;96308.16;30001;983;1881;-59
2022/04/21 00:26:34;;;;;;;;;;;;;;;6.14;62.22;96307.34;30001;972;1879;-58
2022/04/21 00:27:05;;;;;;;;;;;;;;;6.14;61.72;96301.16;30001;982;1876;-59
2022/04/21 00:27:40;;;;;;;;;;;;;;;6.15;61.02;96302.75;30001;982;1881;-58
2022/04/21 00:28:11;;;;;;;;;;;;;;;6.15;61.50;96302.75;30001;982;1881;-68
2022/04/21 00:28:45;;;;;;;;;;;;;;;6.16;61.16;96298.97;30001;982;1881;-58
2022/04/21 00:29:17;;;;;;;;;;;;;;;6.18;60.94;96302.19;30001;982;1881;-58
2022/04/21 00:29:48;;;;;;;;;;;;;;;6.19;60.86;96293.03;30001;982;1881;-57
2022/04/21 00:30:19;;;;;;;;;;;;;;;6.20;60.87;96295.44;30001;983;1880;-58
2022/04/21 00:30:50;;;;;;;;;;;;;;;6.22;61.71;96297.88;30001;983;1880;-59
2022/04/21 00:31:21;;;;;;;;;;;;;;;6.21;61.56;96296.25;30001;983;1791;-58
2022/04/21 00:31:57;;;;;;;;;;;;;;;6.20;60.94;96295.44;30001;983;1858;-58
2022/04/21 00:32:28;;;;;;;;;;;;;;;6.21;61.05;96294.38;30001;983;1876;-58
2022/04/21 00:32:59;;;;;;;;;;;;;;;6.22;61.00;96297.88;30001;983;1880;-58
2022/04/21 00:33:31;;;;;;;;;;;;;;;6.23;60.67;96294.09;30001;983;1881;-59
2022/04/21 00:34:02;;;;;;;;;;;;;;;6.23;60.87;96294.09;30001;983;1881;-58
2022/04/21 00:34:33;;;;;;;;;;;;;;;6.23;60.49;96288.72;30001;972;1898;-59
2022/04/21 00:35:05;;;;;;;;;;;;;;;6.21;61.08;96290.88;30001;982;1881;-58
2022/04/21 00:35:36;;;;;;;;;;;;;;;6.20;61.69;96294.66;30001;982;1881;-58
2022/04/21 00:36:07;;;;;;;;;;;;;;;6.18;62.25;96307.59;30001;982;1881;-57
2022/04/21 00:36:38;;;;;;;;;;;;;;;6.16;61.12;96298.97;30001;982;1881;-59
2022/04/21 00:37:10;;;;;;;;;;;;;;;6.17;61.00;96301.41;30001;983;1858;-58
2022/04/21 00:37:59;;;;;;;;;;;;;;;6.19;61.23;96293.84;30001;983;1876;-58
2022/04/21 00:38:29;;;;;;;;;;;;;;;6.21;62.85;96301.66;30001;983;1876;-59
2022/04/21 00:39:00;;;;;;;;;;;;;;;6.17;63.00;96308.66;30001;983;1854;-66
2022/04/21 00:39:32;;;;;;;;;;;;;;;6.13;62.33;96302.22;30001;983;1872;-60
2022/04/21 00:40:03;;;;;;;;;;;;;;;6.10;62.45;96300.91;30001;983;1876;-59
2022/04/21 00:40:34;;;;;;;;;;;;;;;6.09;61.72;96298.47;30001;983;1876;-65
2022/04/21 00:41:05;;;;;;;;;;;;;;;6.09;62.31;96301.16;30001;983;1876;-59
2022/04/21 00:41:36;;;;;;;;;;;;;;;6.09;61.81;96310.06;30001;983;1876;-59
2022/04/21 00:42:07;;;;;;;;;;;;;;;6.07;62.32;96298.75;30001;982;1877;-59
2022/04/21 00:42:40;;;;;;;;;;;;;;;6.04;62.16;96302.81;30001;982;1855;-59
2022/04/21 00:43:11;;;;;;;;;;;;;;;6.04;62.69;96302.81;30001;982;1872;-58
2022/04/21 00:43:41;;;;;;;;;;;;;;;6.01;61.74;96295.28;30001;982;1877;-58
2022/04/21 00:44:12;;;;;;;;;;;;;;;6.02;61.80;96293.41;30001;982;1877;-67
2022/04/21 00:44:43;;;;;;;;;;;;;;;6.01;61.56;96295.28;30001;983;1876;-59
2022/04/21 00:45:15;;;;;;;;;;;;;;;6.01;62.45;96297.16;30001;983;1876;-58
2022/04/21 00:45:49;;;;;;;;;;;;;;;5.99;61.96;96294.75;30001;983;1876;-58
2022/04/21 00:46:22;;;;;;;;;;;;;;;5.98;62.63;96293.12;30001;983;1876;-58
2022/04/21 00:46:54;;;;;;;;;;;;;;;5.95;62.93;96293.69;30001;983;1876;-57
2022/04/21 00:47:25;;;;;;;;;;;;;;;5.96;62.60;96295.31;30001;983;1876;-59
2022/04/21 00:47:56;;;;;;;;;;;;;;;5.96;62.37;96287.22;30001;983;1854;-59
2022/04/21 00:48:29;;;;;;;;;;;;;;;5.97;62.68;96290.72;30001;983;1872;-59
2022/04/21 00:49:00;;;;;;;;;;;;;;;5.97;62.28;96288.84;30001;983;1877;-59
2022/04/21 00:49:32;;;;;;;;;;;;;;;5.99;62.16;96294.75;30001;982;1876;-59
2022/04/21 00:50:03;;;;;;;;;;;;;;;5.99;62.56;96294.75;30001;982;1854;-59
2022/04/21 00:50:36;;;;;;;;;;;;;;;5.99;62.89;96291.25;30001;982;1872;-59
2022/04/21 00:51:07;;;;;;;;;;;;;;;5.98;62.79;96295.84;30001;982;1877;-58
2022/04/21 00:51:38;;;;;;;;;;;;;;;5.99;62.16;96289.37;30001;982;1855;-58
2022/04/21 00:52:09;;;;;;;;;;;;;;;6.00;62.36;96296.37;30001;983;1849;-58
2022/04/21 00:52:40;;;;;;;;;;;;;;;6.03;62.50;96290.44;30001;983;1876;-57
2022/04/21 00:53:11;;;;;;;;;;;;;;;5.99;64.16;96294.75;30001;983;1876;-66
2022/04/21 00:53:42;;;;;;;;;;;;;;;5.92;64.43;96288.84;30001;983;1876;-59
2022/04/21 00:54:13;;;;;;;;;;;;;;;5.88;64.56;96292.38;30001;983;1876;-59
2022/04/21 00:54:44;;;;;;;;;;;;;;;5.87;63.78;96294.28;30001;983;1876;-58
2022/04/21 00:55:15;;;;;;;;;;;;;;;5.84;64.38;96292.13;30001;983;1876;-58
2022/04/21 00:55:46;;;;;;;;;;;;;;;5.83;64.68;96293.22;30001;983;1876;-59
2022/04/21 00:56:17;;;;;;;;;;;;;;;5.82;63.47;96283.53;30001;982;1854;-58
2022/04/21 00:56:49;;;;;;;;;;;;;;;5.82;63.99;96291.59;30001;982;1872;-58
2022/04/21 00:57:22;;;;;;;;;;;;;;;5.81;63.95;96287.28;30001;982;1854;-58
2022/04/21 00:57:53;;;;;;;;;;;;;;;5.79;64.23;96294.84;30001;982;1872;-58
2022/04/21 00:58:25;;;;;;;;;;;;;;;5.76;65.01;96295.38;30001;982;1877;-58
2022/04/21 00:58:57;;;;;;;;;;;;;;;5.68;65.05;96296.75;30001;982;1877;-58
2022/04/21 00:59:28;;;;;;;;;;;;;;;5.64;64.84;96286.81;30001;983;1876;-59
2022/04/21 00:59:59;;;;;;;;;;;;;;;5.63;64.92;96293.28;30001;983;1864;-60
2022/04/21 01:00:31;;;;;;;;;;;;;;;5.61;65.03;96290.88;30001;983;1854;-59
2022/04/21 01:01:02;;;;;;;;;;;;;;;5.61;64.45;96287.38;30001;983;1871;-58
2022/04/21 01:03:14;;;;;;;;;;;;;;;5.62;65.02;96283.59;30001;983;1876;-59
2022/04/21 01:03:45;;;;;;;;;;;;;;;5.62;64.65;96294.38;30001;982;1876;-57
2022/04/21 01:04:18;;;;;;;;;;;;;;;5.62;64.57;96280.91;30001;982;1876;-59
2022/04/21 01:04:49;;;;;;;;;;;;;;;5.61;64.65;96292.75;30001;982;1876;-59
2022/04/21 01:05:26;;;;;;;;;;;;;;;5.60;64.01;96286.56;30001;982;1877;-57
2022/04/21 01:05:59;;;;;;;;;;;;;;;5.62;63.98;96288.97;30001;982;1855;-60
2022/04/21 01:06:30;;;;;;;;;;;;;;;5.63;65.07;96295.97;30001;982;1872;-66
2022/04/21 01:07:01;;;;;;;;;;;;;;;5.61;65.89;96290.06;30001;983;1876;-58
2022/04/21 01:07:33;;;;;;;;;;;;;;;5.58;65.83;96293.31;30001;983;1876;-59
2022/04/21 01:08:05;;;;;;;;;;;;;;;5.56;66.10;96292.78;30001;983;1876;-58
2022/04/21 01:08:37;;;;;;;;;;;;;;;5.54;65.54;96286.88;30001;983;1876;-58
2022/04/21 01:09:09;;;;;;;;;;;;;;;5.54;64.91;96287.69;30001;983;1876;-59
2022/04/21 01:09:40;;;;;;;;;;;;;;;5.56;65.20;96290.06;30001;983;1876;-60
2022/04/21 01:10:12;;;;;;;;;;;;;;;5.57;65.79;96286.31;30001;983;1876;-59
2022/04/21 01:10:43;;;;;;;;;;;;;;;5.57;66.09;96286.31;30001;983;1876;-58
2022/04/21 01:11:16;;;;;;;;;;;;;;;5.58;65.52;96285.22;30001;982;1855;-59
2022/04/21 01:11:50;;;;;;;;;;;;;;;5.57;65.01;96284.41;30001;982;1872;-58
2022/04/21 01:12:23;;;;;;;;;;;;;;;5.58;64.97;96286.03;30001;982;1876;-58
2022/04/21 01:12:54;;;;;;;;;;;;;;;5.58;65.04;96282.53;30001;982;1876;-58
2022/04/21 01:13:24;;;;;;;;;;;;;;;5.60;64.51;96285.75;30001;982;1877;-59
2022/04/21 01:13:56;;;;;;;;;;;;;;;5.62;64.62;96283.59;30001;982;1877;-58
2022/04/21 01:14:27;;;;;;;;;;;;;;;5.64;65.21;96278.75;30001;982;1877;-58
2022/04/21 01:14:58;;;;;;;;;;;;;;;5.63;64.61;96277.12;30001;983;1876;-58
2022/04/21 01:15:29;;;;;;;;;;;;;;;5.62;64.76;96273.63;30001;983;1876;-59
2022/04/21 01:16:00;;;;;;;;;;;;;;;5.62;64.32;96279.03;30001;983;1854;-58
2022/04/21 01:16:31;;;;;;;;;;;;;;;5.64;64.32;96279.56;30001;983;1850;-68
2022/04/21 01:17:03;;;;;;;;;;;;;;;5.65;64.58;96278.47;30001;983;1876;-67
2022/04/21 01:17:34;;;;;;;;;;;;;;;5.66;64.59;96279.28;30001;983;1876;-67
2022/04/21 01:18:06;;;;;;;;;;;;;;;5.66;64.39;96273.91;30001;983;1876;-58
2022/04/21 01:18:37;;;;;;;;;;;;;;;5.68;64.29;96282.50;30001;983;1855;-66
2022/04/21 01:19:08;;;;;;;;;;;;;;;5.68;64.28;96277.91;30001;982;1872;-58
2022/04/21 01:19:38;;;;;;;;;;;;;;;5.69;64.54;96284.09;30001;982;1877;-59
2022/04/21 01:20:14;;;;;;;;;;;;;;;5.69;64.18;96276.03;30001;982;1876;-58
2022/04/21 01:20:45;;;;;;;;;;;;;;;5.68;64.34;96283.31;30001;982;1877;-58
2022/04/21 01:21:16;;;;;;;;;;;;;;;5.68;64.22;96274.44;30001;982;1877;-58
2022/04/21 01:21:48;;;;;;;;;;;;;;;5.68;64.16;96277.12;30001;982;1877;-58
2022/04/21 01:22:19;;;;;;;;;;;;;;;5.68;64.58;96277.12;30001;983;1876;-67
2022/04/21 01:22:53;;;;;;;;;;;;;;;5.67;64.29;96273.63;30001;983;1876;-58
2022/04/21 01:23:24;;;;;;;;;;;;;;;5.68;64.21;96271.72;30001;983;1854;-67
2022/04/21 01:23:55;;;;;;;;;;;;;;;5.68;64.64;96271.72;30001;983;1872;-67
2022/04/21 01:24:26;;;;;;;;;;;;;;;5.67;64.96;96278.19;30001;983;1876;-58
2022/04/21 01:24:57;;;;;;;;;;;;;;;5.66;65.00;96273.91;30001;983;1876;-67
2022/04/21 01:25:36;;;;;;;;;;;;;;;5.66;64.39;96279.28;30001;983;1876;-59
2022/04/21 01:26:07;;;;;;;;;;;;;;;5.66;64.38;96269.31;30001;983;1876;-66
2022/04/21 01:26:37;;;;;;;;;;;;;;;5.68;64.66;96279.81;30001;982;1876;-68
2022/04/21 01:27:08;;;;;;;;;;;;;;;5.66;66.01;96274.69;30001;982;1876;-58
2022/04/21 01:27:41;;;;;;;;;;;;;;;5.65;65.99;96277.66;30001;982;1876;-58
2022/04/21 01:28:12;;;;;;;;;;;;;;;5.63;65.41;96282.53;30001;982;1877;-59
2022/04/21 01:28:45;;;;;;;;;;;;;;;5.63;65.54;96279.81;30001;982;1855;-58
2022/04/21 01:29:17;;;;;;;;;;;;;;;5.63;65.12;96279.81;30001;983;1871;-59
2022/04/21 01:29:48;;;;;;;;;;;;;;;5.61;64.64;96277.41;30001;983;1876;-58
2022/04/21 01:30:19;;;;;;;;;;;;;;;5.63;64.76;96280.63;30001;983;1876;-58
2022/04/21 01:30:53;;;;;;;;;;;;;;;5.64;65.52;96286.81;30001;983;1876;-58
2022/04/21 01:31:25;;;;;;;;;;;;;;;5.61;65.14;96285.47;30001;983;1876;-59
2022/04/21 01:31:56;;;;;;;;;;;;;;;5.60;65.62;96281.19;30001;983;1876;-59
2022/04/21 01:32:27;;;;;;;;;;;;;;;5.59;65.16;96284.16;30001;983;1876;-58
2022/04/21 01:32:57;;;;;;;;;;;;;;;5.59;65.12;96281.47;30001;983;1854;-59
2022/04/21 01:33:28;;;;;;;;;;;;;;;5.59;65.59;96278.75;30001;983;1872;-58
2022/04/21 01:33:59;;;;;;;;;;;;;;;5.59;64.95;96276.06;30001;982;1876;-59
2022/04/21 01:34:31;;;;;;;;;;;;;;;5.58;66.25;96280.66;30001;969;1900;-67
2022/04/21 01:35:06;;;;;;;;;;;;;;;5.57;66.68;96283.63;30001;982;1876;-67
2022/04/21 01:35:37;;;;;;;;;;;;;;;5.54;66.35;96276.13;30001;982;1877;-59
2022/04/21 01:36:08;;;;;;;;;;;;;;;5.54;65.56;96278.81;30001;982;1877;-68
2022/04/21 01:41:08;;;;;;;;;;;;;;;5.54;65.70;96282.31;30001;983;1876;-67
2022/04/21 01:41:11;;;;;;;;;;;;;;;5.50;66.23;96269.69;30001;983;1877;-58
2022/04/21 01:41:43;;;;;;;;;;;;;;;5.50;67.03;96281.25;30001;982;1854;-59
2022/04/21 01:42:14;;;;;;;;;;;;;;;5.49;66.96;96268.06;30001;982;1872;-67
2022/04/21 01:42:45;;;;;;;;;;;;;;;5.48;66.33;96272.63;30001;982;1855;-58
2022/04/21 01:43:16;;;;;;;;;;;;;;;5.50;66.14;96275.06;30001;982;1872;-59
2022/04/21 01:43:47;;;;;;;;;;;;;;;5.50;65.99;96273.16;30001;982;1877;-58
2022/04/21 01:44:18;;;;;;;;;;;;;;;5.50;66.35;96273.16;30001;983;1876;-59
2022/04/21 01:44:49;;;;;;;;;;;;;;;5.48;66.03;96274.53;30001;983;1876;-58
2022/04/21 01:45:20;;;;;;;;;;;;;;;5.48;66.02;96278.03;30001;983;1876;-58
2022/04/21 01:45:51;;;;;;;;;;;;;;;5.47;67.56;96281.00;30001;983;1876;-59
2022/04/21 01:46:22;;;;;;;;;;;;;;;5.42;67.84;96272.94;30001;983;1854;-58
2022/04/21 01:46:53;;;;;;;;;;;;;;;5.39;67.31;96274.28;30001;983;1850;-58
2022/04/21 01:47:24;;;;;;;;;;;;;;;5.39;66.82;96276.97;30001;983;1876;-58
2022/04/21 01:47:56;;;;;;;;;;;;;;;5.42;66.69;96278.31;30001;983;1854;-59
2022/04/21 01:48:27;;;;;;;;;;;;;;;5.43;66.64;96274.53;30001;983;1872;-58
2022/04/21 01:48:58;;;;;;;;;;;;;;;5.42;66.28;96273.75;30001;982;1876;-58
2022/04/21 01:49:28;;;;;;;;;;;;;;;5.42;66.09;96278.31;30001;982;1876;-67
2022/04/21 01:49:59;;;;;;;;;;;;;;;5.44;66.40;96284.22;30001;982;1877;-67
2022/04/21 01:50:31;;;;;;;;;;;;;;;5.41;67.52;96274.00;30001;982;1877;-58
2022/04/21 01:51:02;;;;;;;;;;;;;;;5.39;66.75;96275.09;30001;982;1877;-67
2022/04/21 01:51:33;;;;;;;;;;;;;;;5.38;66.71;96273.47;30001;983;1854;-59
2022/04/21 01:52:04;;;;;;;;;;;;;;;5.38;67.15;96275.38;30001;983;1871;-67
2022/04/21 01:52:38;;;;;;;;;;;;;;;5.35;67.22;96275.91;30001;983;1876;-58
2022/04/21 01:53:09;;;;;;;;;;;;;;;5.34;67.14;96271.59;30001;983;1876;-58
2022/04/21 01:53:41;;;;;;;;;;;;;;;5.33;66.81;96276.19;30001;983;1876;-66
2022/04/21 01:54:13;;;;;;;;;;;;;;;5.33;66.75;96270.81;30001;983;1876;-61
2022/04/21 01:54:44;;;;;;;;;;;;;;;5.33;66.53;96270.81;30001;983;1791;-58
2022/04/21 01:55:15;;;;;;;;;;;;;;;5.34;66.47;96268.91;30001;983;1876;-67
2022/04/21 01:55:46;;;;;;;;;;;;;;;5.36;66.56;96274.81;30001;982;1876;-67
2022/04/21 01:56:17;;;;;;;;;;;;;;;5.38;66.76;96272.66;30001;982;1876;-59
2022/04/21 01:56:48;;;;;;;;;;;;;;;5.38;67.28;96269.97;30001;982;1854;-58
2022/04/21 01:57:20;;;;;;;;;;;;;;;5.34;67.13;96272.41;30001;982;1872;-67
2022/04/21 01:57:50;;;;;;;;;;;;;;;5.34;66.83;96266.22;30001;982;1877;-57
2022/04/21 01:58:21;;;;;;;;;;;;;;;5.35;66.82;96274.03;30001;982;1877;-58
2022/04/21 01:58:52;;;;;;;;;;;;;;;5.36;66.85;96270.25;30001;982;1877;-58
2022/04/21 01:59:23;;;;;;;;;;;;;;;5.36;66.35;96275.63;30001;983;1876;-58
2022/04/21 01:59:53;;;;;;;;;;;;;;;5.35;66.20;96279.41;30001;983;1876;-58
2022/04/21 02:00:24;;;;;;;;;;;;;;;5.35;66.28;96268.66;30001;983;1854;-58
2022/04/21 02:00:55;;;;;;;;;;;;;;;5.35;66.25;96273.22;30001;983;1872;-59
2022/04/21 02:01:26;;;;;;;;;;;;;;;5.35;66.35;96274.03;30001;983;1876;-58
2022/04/21 02:01:57;;;;;;;;;;;;;;;5.36;66.19;96272.94;30001;983;1876;-57
2022/04/21 02:02:29;;;;;;;;;;;;;;;5.35;66.78;96274.03;30001;983;1876;-58
2022/04/21 02:03:00;;;;;;;;;;;;;;;5.34;66.41;96272.41;30001;983;1876;-67
2022/04/21 02:03:32;;;;;;;;;;;;;;;5.34;66.43;96272.41;30001;982;1876;-59
2022/04/21 02:04:03;;;;;;;;;;;;;;;5.35;66.39;96268.66;30001;982;1855;-58
2022/04/21 02:04:35;;;;;;;;;;;;;;;5.35;66.40;96270.53;30001;982;1872;-59
2022/04/21 02:05:06;;;;;;;;;;;;;;;5.35;66.83;96274.03;30001;982;1877;-67
2022/04/21 02:05:41;;;;;;;;;;;;;;;5.36;67.01;96270.25;30001;982;1876;-58
2022/04/21 02:06:13;;;;;;;;;;;;;;;5.34;66.44;96269.72;30001;982;1877;-59
2022/04/21 02:06:44;;;;;;;;;;;;;;;5.35;66.89;96271.34;30001;983;1876;-58
2022/04/21 02:07:16;;;;;;;;;;;;;;;5.37;66.54;96274.56;30001;983;1876;-58
2022/04/21 02:07:52;;;;;;;;;;;;;;;5.36;66.73;96275.63;30001;983;1876;-60
2022/04/21 02:08:23;;;;;;;;;;;;;;;5.35;66.94;96268.66;30001;983;1876;-67
2022/04/21 02:08:58;;;;;;;;;;;;;;;5.35;66.61;96268.66;30001;983;1854;-66
2022/04/21 02:09:29;;;;;;;;;;;;;;;5.35;66.90;96271.34;30001;983;1872;-67
2022/04/21 02:10:00;;;;;;;;;;;;;;;5.34;67.94;96268.91;30001;983;1876;-67
2022/04/21 02:10:31;;;;;;;;;;;;;;;5.32;67.46;96268.38;30001;983;1876;-60
2022/04/21 02:11:02;;;;;;;;;;;;;;;5.31;67.36;96267.56;30001;982;1876;-59
2022/04/21 02:11:34;;;;;;;;;;;;;;;5.31;67.88;96267.56;30001;982;1876;-68
2022/04/21 02:12:06;;;;;;;;;;;;;;;5.29;67.68;96267.03;30001;982;1876;-67
2022/04/21 02:12:37;;;;;;;;;;;;;;;5.28;67.27;96268.13;30001;982;1876;-59
2022/04/21 02:13:08;;;;;;;;;;;;;;;5.30;67.18;96270.53;30001;982;1877;-67
2022/04/21 02:13:43;;;;;;;;;;;;;;;5.30;67.19;96265.97;30001;982;1877;-58
2022/04/21 02:14:14;;;;;;;;;;;;;;;5.30;67.29;96265.16;30001;983;1854;-59
2022/04/21 02:14:45;;;;;;;;;;;;;;;5.30;67.30;96267.84;30001;983;1871;-58
2022/04/21 02:15:19;;;;;;;;;;;;;;;5.28;67.00;96262.75;30001;983;1876;-67
2022/04/21 02:15:50;;;;;;;;;;;;;;;5.29;67.05;96264.34;30001;983;1876;-58
2022/04/21 02:16:21;;;;;;;;;;;;;;;5.29;66.99;96258.97;30001;983;1876;-59
2022/04/21 02:16:52;;;;;;;;;;;;;;;5.30;67.15;96265.97;30001;983;1876;-58
2022/04/21 02:17:26;;;;;;;;;;;;;;;5.28;67.81;96254.69;30001;983;1876;-58
2022/04/21 02:17:57;;;;;;;;;;;;;;;5.28;67.33;96262.75;30001;983;1876;-58
2022/04/21 02:18:28;;;;;;;;;;;;;;;5.29;67.44;96258.16;30001;982;1876;-67
2022/04/21 02:18:59;;;;;;;;;;;;;;;5.29;67.29;96263.56;30001;982;1876;-67
2022/04/21 02:19:30;;;;;;;;;;;;;;;5.27;67.74;96263.81;30001;982;1855;-67
2022/04/21 02:20:06;;;;;;;;;;;;;;;5.26;67.36;96256.84;30001;982;1850;-59
2022/04/21 02:20:37;;;;;;;;;;;;;;;5.26;68.11;96254.12;30001;982;1877;-58
2022/04/21 02:21:08;;;;;;;;;;;;;;;5.25;67.55;96257.09;30001;983;1876;-59
2022/04/21 02:21:39;;;;;;;;;;;;;;;5.24;67.29;96259.00;30001;983;1876;-59
2022/04/21 02:22:10;;;;;;;;;;;;;;;5.24;67.48;96256.28;30001;983;1876;-59
2022/04/21 02:22:41;;;;;;;;;;;;;;;5.24;67.87;96261.69;30001;983;1876;-67
2022/04/21 02:23:12;;;;;;;;;;;;;;;5.23;68.21;96254.69;30001;983;1876;-66
2022/04/21 02:23:43;;;;;;;;;;;;;;;5.22;67.78;96253.06;30001;983;1876;-66
2022/04/21 02:24:14;;;;;;;;;;;;;;;5.23;68.14;96259.25;30001;983;1876;-59
2022/04/21 02:24:45;;;;;;;;;;;;;;;5.23;67.52;96254.69;30001;983;1876;-59
2022/04/21 02:25:16;;;;;;;;;;;;;;;5.24;67.75;96250.91;30001;983;1855;-67
2022/04/21 02:25:47;;;;;;;;;;;;;;;5.25;68.54;96251.72;30001;983;1872;-59
2022/04/21 02:26:18;;;;;;;;;;;;;;;5.25;68.88;96249.84;30001;982;1876;-60
2022/04/21 02:26:49;;;;;;;;;;;;;;;5.23;68.05;96248.50;30001;982;1877;-68
2022/04/21 02:27:20;;;;;;;;;;;;;;;5.24;68.17;96256.28;30001;982;1876;-68
2022/04/21 02:27:52;;;;;;;;;;;;;;;5.24;67.74;96256.28;30001;982;1877;-67
2022/04/21 02:28:25;;;;;;;;;;;;;;;5.25;68.25;96249.84;30001;983;1876;-58
2022/04/21 02:28:56;;;;;;;;;;;;;;;5.25;67.93;96247.16;30001;983;1876;-67
2022/04/21 02:29:27;;;;;;;;;;;;;;;5.25;67.86;96252.53;30001;983;1876;-58
2022/04/21 02:29:59;;;;;;;;;;;;;;;5.24;68.09;96250.91;30001;983;1876;-66
2022/04/21 02:30:30;;;;;;;;;;;;;;;5.24;67.64;96250.91;30001;983;1854;-60
2022/04/21 02:31:04;;;;;;;;;;;;;;;5.26;67.73;96253.34;30001;983;1872;-58
2022/04/21 02:31:35;;;;;;;;;;;;;;;5.26;67.79;96253.34;30001;983;1876;-59
2022/04/21 02:32:06;;;;;;;;;;;;;;;5.25;68.06;96252.53;30001;983;1876;-58
2022/04/21 02:32:38;;;;;;;;;;;;;;;5.23;69.26;96249.31;30001;983;1876;-59
2022/04/21 02:33:09;;;;;;;;;;;;;;;5.20;68.84;96249.84;30001;983;1855;-59
2022/04/21 02:33:40;;;;;;;;;;;;;;;5.19;68.26;96248.28;30001;982;1872;-59
2022/04/21 02:34:11;;;;;;;;;;;;;;;5.20;68.18;96244.47;30001;982;1876;-59
2022/04/21 02:34:41;;;;;;;;;;;;;;;5.21;68.19;96250.66;30001;982;1877;-58
2022/04/21 02:35:15;;;;;;;;;;;;;;;5.21;67.89;96248.78;30001;982;1877;-58
2022/04/21 02:35:45;;;;;;;;;;;;;;;5.23;67.83;96246.62;30001;982;1877;-58
2022/04/21 02:36:16;;;;;;;;;;;;;;;5.24;68.21;96244.72;30001;983;1876;-59
2022/04/21 02:36:47;;;;;;;;;;;;;;;5.23;67.88;96253.88;30001;983;1876;-58
2022/04/21 02:37:18;;;;;;;;;;;;;;;5.24;67.97;96255.50;30001;983;1876;-59
2022/04/21 02:37:50;;;;;;;;;;;;;;;5.23;68.05;96249.31;30001;983;1876;-58
2022/04/21 02:38:21;;;;;;;;;;;;;;;5.22;68.59;96247.69;30001;983;1854;-58
2022/04/21 02:38:51;;;;;;;;;;;;;;;5.22;68.13;96253.06;30001;983;1872;-59
2022/04/21 02:39:23;;;;;;;;;;;;;;;5.21;68.31;96248.78;30001;983;1876;-58
2022/04/21 02:39:54;;;;;;;;;;;;;;;5.20;68.46;96249.84;30001;983;1876;-59
2022/04/21 02:40:25;;;;;;;;;;;;;;;5.20;68.27;96252.53;30001;983;1876;-59
2022/04/21 02:40:59;;;;;;;;;;;;;;;5.19;69.56;96247.47;30001;982;1876;-58
2022/04/21 02:41:30;;;;;;;;;;;;;;;5.16;69.22;96246.13;30001;982;1876;-57
2022/04/21 02:42:01;;;;;;;;;;;;;;;5.15;68.88;96247.22;30001;982;1877;-58
2022/04/21 02:42:33;;;;;;;;;;;;;;;5.16;68.63;96254.19;30001;982;1876;-59
2022/04/21 02:43:04;;;;;;;;;;;;;;;5.16;68.89;96246.13;30001;982;1877;-59
2022/04/21 02:43:35;;;;;;;;;;;;;;;5.16;68.68;96248.00;30001;983;1854;-58
2022/04/21 02:44:05;;;;;;;;;;;;;;;5.16;68.82;96246.13;30001;983;1871;-58
2022/04/21 02:44:37;;;;;;;;;;;;;;;5.14;68.72;96240.22;30001;983;1876;-60
2022/04/21 02:45:09;;;;;;;;;;;;;;;5.15;68.31;96247.22;30001;983;1876;-58
2022/04/21 02:45:41;;;;;;;;;;;;;;;5.16;68.52;96243.44;30001;983;1876;-59
2022/04/21 02:46:13;;;;;;;;;;;;;;;5.17;68.41;96245.06;30001;983;1876;-59
2022/04/21 02:46:45;;;;;;;;;;;;;;;5.19;68.69;96242.91;30001;983;1776;-59
2022/04/21 02:47:17;;;;;;;;;;;;;;;5.21;68.57;96243.41;30001;983;1876;-59
2022/04/21 02:47:49;;;;;;;;;;;;;;;5.20;69.08;96244.47;30001;982;1876;-58
2022/04/21 02:48:20;;;;;;;;;;;;;;;5.17;68.64;96245.06;30001;982;1876;-59
2022/04/21 02:48:50;;;;;;;;;;;;;;;5.16;68.84;96243.44;30001;982;1854;-59
2022/04/21 02:49:21;;;;;;;;;;;;;;;5.13;69.22;96243.97;30001;982;1872;-59
2022/04/21 02:49:53;;;;;;;;;;;;;;;5.10;70.53;96243.72;30001;982;1877;-59
2022/04/21 02:50:24;;;;;;;;;;;;;;;5.05;69.79;96236.47;30001;982;1877;-59
2022/04/21 02:50:55;;;;;;;;;;;;;;;5.04;69.46;96243.72;30001;982;1877;-58
2022/04/21 02:51:27;;;;;;;;;;;;;;;5.04;69.84;96240.25;30001;983;1876;-59
2022/04/21 02:51:58;;;;;;;;;;;;;;;5.03;69.57;96238.63;30001;983;1876;-66
2022/04/21 02:52:29;;;;;;;;;;;;;;;5.04;69.23;96229.47;30001;983;1876;-59
2022/04/21 02:53:00;;;;;;;;;;;;;;;5.05;69.96;96233.78;30001;983;1854;-59
2022/04/21 02:57:36;;;;;;;;;;;;;;;5.13;69.23;96233.22;30001;982;1877;-59
2022/04/21 02:58:07;;;;;;;;;;;;;;;5.14;69.11;96229.47;30001;982;1855;-59
2022/04/21 02:58:37;;;;;;;;;;;;;;;5.15;69.23;96235.66;30001;983;1871;-59
2022/04/21 02:59:08;;;;;;;;;;;;;;;5.14;69.33;96234.84;30001;983;1876;-60
2022/04/21 02:59:40;;;;;;;;;;;;;;;5.14;70.16;96234.84;30001;983;1854;-58
2022/04/21 03:00:11;;;;;;;;;;;;;;;5.14;69.48;96232.16;30001;983;1871;-58
2022/04/21 03:00:42;;;;;;;;;;;;;;;5.14;69.26;96229.47;30001;983;1876;-58
2022/04/21 03:01:13;;;;;;;;;;;;;;;5.14;69.98;96240.22;30001;983;1876;-58
2022/04/21 03:01:44;;;;;;;;;;;;;;;5.12;69.81;96231.62;30001;983;1876;-58